Parrish, Wisconsin
Current Conditions -  °F | °C
As of 3:35 AM on Sunday 23 Nov 2014 (Local Time) from KRRL Reporting Station
Drizzle Drizzle  
Wind Chill: 35°   Ceiling: 100
Heat Index: 39°   Visibility: 0.25mi
Dew Point: 39°   Wind: 6mph
Humidity: 100%   Direction: 160°SSE
Pressure: 29.56"   Gusts: NA
Location:  45.3595°N, 89.45°W
Report Text: KRRL 230935Z AUTO 16005KT 1/4SM -DZ OVC001 04/04 A2956 RMK AO2 T00410041
Loading
Personal Weather Stations






























Interactive Weather Map New forecast layout! Learn more

10-Day Weather Forecast

Advertisements
Track Severe Weather on mobile